createdAt,value
2023-03-29T00:00:34.546Z,101639.19
2023-03-29T00:03:04.461Z,101640.13
2023-03-29T00:05:35.379Z,101636.41
2023-03-29T00:08:04.593Z,101649.94
2023-03-29T00:10:34.187Z,101651.09
2023-03-29T00:13:03.017Z,101658.88
2023-03-29T00:15:31.163Z,101653.53
2023-03-29T00:17:59.334Z,101653.22
2023-03-29T00:20:29.066Z,101649.81
2023-03-29T00:22:57.123Z,101641.53
2023-03-29T00:25:25.341Z,101635.81
2023-03-29T00:27:53.458Z,101632.41
2023-03-29T00:30:21.485Z,101632.22
2023-03-29T00:32:49.615Z,101622.72
2023-03-29T00:35:18.030Z,101630.50
2023-03-29T00:37:47.545Z,101626.88
2023-03-29T00:40:15.859Z,101626.28
2023-03-29T00:42:47.029Z,101631.81
2023-03-29T00:45:26.421Z,101614.34
2023-03-29T00:48:02.633Z,101605.94
2023-03-29T00:50:49.340Z,101597.44
2023-03-29T00:53:49.269Z,101573.09
2023-03-29T00:56:35.566Z,101573.63
2023-03-29T00:59:17.928Z,101575.31
2023-03-29T01:01:54.582Z,101581.28
2023-03-29T01:04:43.091Z,101570.59
2023-03-29T01:07:43.319Z,101550.84
2023-03-29T01:10:17.503Z,101542.28
2023-03-29T01:12:56.925Z,101539.88
2023-03-29T01:15:27.440Z,101538.41
2023-03-29T01:17:58.753Z,101541.16
2023-03-29T01:20:51.949Z,101542.59
2023-03-29T01:23:22.877Z,101517.38
2023-03-29T01:26:01.449Z,101517.81
2023-03-29T01:28:39.427Z,101524.47
2023-03-29T01:31:12.842Z,101522.78
2023-03-29T01:33:48.696Z,101531.56
2023-03-29T01:36:38.502Z,101531.84
2023-03-29T01:39:07.604Z,101533.63
2023-03-29T01:41:58.796Z,101537.06
2023-03-29T01:44:47.656Z,101546.19
2023-03-29T01:47:18.929Z,101541.34
2023-03-29T01:50:00.690Z,101556.25
2023-03-29T01:52:55.019Z,101562.13
2023-03-29T01:55:32.828Z,101557.59
2023-03-29T01:58:04.812Z,101551.06
2023-03-29T02:00:35.172Z,101541.94
2023-03-29T02:03:08.971Z,101538.44
2023-03-29T02:05:39.870Z,101537.00
2023-03-29T02:08:11.201Z,101537.25
2023-03-29T02:10:39.478Z,101539.34
2023-03-29T02:13:07.678Z,101542.44
2023-03-29T02:15:35.995Z,101534.78
2023-03-29T02:18:07.011Z,101533.06
2023-03-29T02:20:42.879Z,101553.22
2023-03-29T02:23:35.720Z,101558.66
2023-03-29T02:26:04.350Z,101553.16
2023-03-29T02:28:33.532Z,101558.97
2023-03-29T02:31:08.214Z,101550.44
2023-03-29T02:33:53.423Z,101548.66
2023-03-29T02:36:23.907Z,101543.72
2023-03-29T02:38:53.450Z,101533.91
2023-03-29T02:41:24.058Z,101534.72
2023-03-29T02:43:56.162Z,101535.22
2023-03-29T02:46:24.788Z,101537.16
2023-03-29T02:48:54.821Z,101528.53
2023-03-29T02:51:28.904Z,101529.91
2023-03-29T02:54:08.516Z,101533.84
2023-03-29T02:56:45.475Z,101530.81
2023-03-29T02:59:14.473Z,101529.84
2023-03-29T03:01:45.837Z,101542.75
2023-03-29T03:04:16.093Z,101535.28
2023-03-29T03:06:45.101Z,101537.16
2023-03-29T03:09:13.815Z,101547.13
2023-03-29T03:11:44.516Z,101535.56
2023-03-29T03:14:12.764Z,101543.72
2023-03-29T03:16:41.318Z,101539.16
2023-03-29T03:19:10.854Z,101542.75
2023-03-29T03:21:38.807Z,101537.25
2023-03-29T03:24:07.864Z,101533.00
2023-03-29T03:26:38.508Z,101532.25
2023-03-29T03:29:07.738Z,101534.09
2023-03-29T03:31:56.102Z,101539.72
2023-03-29T03:34:56.309Z,101541.31
2023-03-29T03:37:28.014Z,101538.47
2023-03-29T03:39:56.756Z,101545.88
2023-03-29T03:42:30.286Z,101538.09
2023-03-29T03:44:59.785Z,101547.59
2023-03-29T03:47:48.282Z,101540.53
2023-03-29T03:50:35.783Z,101549.47
2023-03-29T03:53:03.816Z,101555.13
2023-03-29T03:55:54.718Z,101547.38
2023-03-29T03:58:27.645Z,101548.47
2023-03-29T04:00:55.649Z,101534.63
2023-03-29T04:03:38.121Z,101538.03
2023-03-29T04:06:07.147Z,101534.75
2023-03-29T04:08:55.108Z,101544.28
2023-03-29T04:11:34.456Z,101540.19
2023-03-29T04:14:03.066Z,101544.94
2023-03-29T04:17:03.357Z,101540.97
2023-03-29T04:19:54.183Z,101541.41
2023-03-29T04:22:22.116Z,101548.75
2023-03-29T04:24:51.629Z,101544.28
2023-03-29T04:27:52.069Z,101533.91
2023-03-29T04:30:47.248Z,101539.88
2023-03-29T04:33:21.294Z,101549.81
2023-03-29T04:35:55.847Z,101552.97
2023-03-29T04:38:24.002Z,101552.25
2023-03-29T04:40:55.259Z,101563.28
2023-03-29T04:43:49.580Z,101566.50
2023-03-29T04:46:27.796Z,101564.34
2023-03-29T04:49:14.561Z,101566.59
2023-03-29T04:51:46.625Z,101565.84
2023-03-29T04:54:17.072Z,101566.63
2023-03-29T04:57:07.277Z,101567.41
2023-03-29T04:59:58.222Z,101562.47
2023-03-29T05:02:55.280Z,101568.53
2023-03-29T05:05:24.637Z,101569.28
2023-03-29T05:07:55.081Z,101582.47
2023-03-29T05:10:28.538Z,101577.34
2023-03-29T05:12:57.141Z,101563.78
2023-03-29T05:15:25.502Z,101565.50
2023-03-29T05:17:53.754Z,101558.78
2023-03-29T05:20:22.440Z,101555.09
2023-03-29T05:22:50.983Z,101573.91
2023-03-29T05:25:38.801Z,101573.81
2023-03-29T05:28:06.770Z,101573.91
2023-03-29T05:30:35.120Z,101563.09
2023-03-29T05:33:14.268Z,101552.28
2023-03-29T05:35:42.399Z,101556.53
2023-03-29T05:38:10.616Z,101566.31
2023-03-29T05:40:38.943Z,101566.25
2023-03-29T05:43:42.488Z,101560.00
2023-03-29T05:46:10.552Z,101567.66
2023-03-29T05:48:42.956Z,101574.63
2023-03-29T05:51:11.466Z,101577.41
2023-03-29T05:53:39.494Z,101577.41
2023-03-29T05:56:09.345Z,101586.38
2023-03-29T05:58:38.420Z,101578.38
2023-03-29T06:01:13.158Z,101580.72
2023-03-29T06:04:04.356Z,101591.03
2023-03-29T06:06:53.292Z,101584.44
2023-03-29T06:09:21.823Z,101595.81
2023-03-29T06:12:02.031Z,101600.19
2023-03-29T06:14:30.144Z,101600.06
2023-03-29T06:17:16.484Z,101598.69
2023-03-29T06:19:44.773Z,101607.41
2023-03-29T06:22:14.690Z,101598.56
2023-03-29T06:24:43.655Z,101592.97
2023-03-29T06:27:22.566Z,101588.94
2023-03-29T06:29:51.847Z,101591.84
2023-03-29T06:32:20.244Z,101585.66
2023-03-29T06:34:52.086Z,101584.78
2023-03-29T06:37:53.824Z,101580.91
2023-03-29T06:40:38.283Z,101597.31
2023-03-29T06:43:07.576Z,101600.53
2023-03-29T06:45:55.056Z,101606.16
2023-03-29T06:48:41.298Z,101606.94
2023-03-29T06:51:09.432Z,101607.06
2023-03-29T06:53:38.068Z,101610.41
2023-03-29T06:56:09.642Z,101612.19
2023-03-29T06:58:45.775Z,101614.97
2023-03-29T07:01:49.489Z,101610.28
2023-03-29T07:04:24.955Z,101610.09
2023-03-29T07:07:20.204Z,101624.50
2023-03-29T07:09:55.791Z,101627.28
2023-03-29T07:13:02.244Z,101632.22
2023-03-29T07:15:30.454Z,101636.28
2023-03-29T07:18:22.023Z,101632.47
2023-03-29T07:20:50.439Z,101645.25
2023-03-29T07:23:18.626Z,101648.41
2023-03-29T07:25:48.402Z,101655.41
2023-03-29T07:28:16.874Z,101659.94
2023-03-29T07:30:44.894Z,101665.50
2023-03-29T07:33:16.568Z,101667.59
2023-03-29T07:35:57.474Z,101667.84
2023-03-29T07:38:26.366Z,101664.88
2023-03-29T07:41:08.281Z,101665.50
2023-03-29T07:43:37.770Z,101662.31
2023-03-29T07:46:17.384Z,101668.94
2023-03-29T07:48:45.448Z,101657.16
2023-03-29T07:51:16.777Z,101661.47
2023-03-29T07:54:01.374Z,101654.63
2023-03-29T07:56:32.539Z,101657.78
2023-03-29T07:59:23.657Z,101652.03
2023-03-29T08:02:04.510Z,101652.44
2023-03-29T08:04:37.645Z,101656.28
2023-03-29T08:07:21.629Z,101652.50
2023-03-29T08:09:56.780Z,101652.72
2023-03-29T08:12:37.883Z,101647.56
2023-03-29T08:15:07.034Z,101643.06
2023-03-29T08:17:36.610Z,101631.72
2023-03-29T08:20:09.773Z,101631.38
2023-03-29T08:22:40.657Z,101631.53
2023-03-29T08:25:09.316Z,101619.38
2023-03-29T08:27:43.532Z,101624.19
2023-03-29T08:30:15.008Z,101617.00
2023-03-29T08:32:43.094Z,101625.16
2023-03-29T08:35:11.892Z,101624.56
2023-03-29T08:37:47.486Z,101628.84
2023-03-29T08:40:24.469Z,101634.72
2023-03-29T08:43:16.520Z,101621.88
2023-03-29T08:46:24.206Z,101633.63
2023-03-29T08:49:04.763Z,101635.34
2023-03-29T08:51:43.094Z,101629.06
2023-03-29T08:54:25.248Z,101626.19
2023-03-29T08:57:28.355Z,101614.69
2023-03-29T09:00:05.720Z,101620.13
2023-03-29T09:02:37.823Z,101611.38
2023-03-29T09:05:24.977Z,101612.47
2023-03-29T09:08:14.025Z,101604.09
2023-03-29T09:11:18.175Z,101614.66
2023-03-29T09:13:46.753Z,101624.50
2023-03-29T09:16:23.699Z,101618.06
2023-03-29T09:19:19.908Z,101614.31
2023-03-29T09:22:16.326Z,101619.13
2023-03-29T09:24:56.673Z,101614.63
2023-03-29T09:27:48.225Z,101610.84
2023-03-29T09:31:02.769Z,101607.41
2023-03-29T09:33:43.966Z,101606.31
2023-03-29T09:36:26.391Z,101605.00
2023-03-29T09:38:55.981Z,101599.50
2023-03-29T09:41:52.670Z,101600.06
2023-03-29T09:44:30.979Z,101605.06
2023-03-29T09:47:25.346Z,101598.06
2023-03-29T09:50:02.882Z,101599.53
2023-03-29T09:52:31.501Z,101603.84
2023-03-29T09:55:15.301Z,101590.63
2023-03-29T09:57:53.803Z,101584.16
2023-03-29T10:00:22.606Z,101590.47
2023-03-29T10:02:58.108Z,101583.56
2023-03-29T10:05:38.366Z,101582.22
2023-03-29T10:08:20.466Z,101581.69
2023-03-29T10:10:48.972Z,101568.03
2023-03-29T10:13:23.341Z,101563.88
2023-03-29T10:16:09.600Z,101567.28
2023-03-29T10:18:42.764Z,101567.13
2023-03-29T10:21:16.123Z,101563.00
2023-03-29T10:23:44.550Z,101564.88
2023-03-29T10:26:32.761Z,101551.53
2023-03-29T10:29:04.907Z,101546.44
2023-03-29T10:31:33.773Z,101545.63
2023-03-29T10:34:05.326Z,101534.59
2023-03-29T10:36:34.367Z,101524.72
2023-03-29T10:39:06.238Z,101529.50
2023-03-29T10:41:36.065Z,101521.47
2023-03-29T10:44:05.258Z,101524.88
2023-03-29T10:46:42.439Z,101517.50
2023-03-29T10:49:20.919Z,101508.63
2023-03-29T10:51:50.918Z,101504.41
2023-03-29T10:54:22.423Z,101509.47
2023-03-29T10:56:58.777Z,101509.72
2023-03-29T10:59:58.230Z,101506.88
2023-03-29T11:02:55.446Z,101498.72
2023-03-29T11:05:39.296Z,101509.22
2023-03-29T11:08:16.390Z,101500.56
2023-03-29T11:11:09.115Z,101485.41
2023-03-29T11:14:14.847Z,101494.91
2023-03-29T11:16:52.777Z,101485.50
2023-03-29T11:19:39.175Z,101515.41
2023-03-29T11:22:48.991Z,101495.22
2023-03-29T11:25:49.442Z,101474.25
2023-03-29T11:28:45.929Z,101479.84
2023-03-29T11:31:34.862Z,101470.66
2023-03-29T11:34:12.659Z,101470.78
2023-03-29T11:36:58.510Z,101477.78
2023-03-29T11:39:54.730Z,101473.69
2023-03-29T11:42:32.343Z,101474.97
2023-03-29T11:45:05.259Z,101470.31
2023-03-29T11:47:39.475Z,101470.56
2023-03-29T11:50:22.233Z,101473.50
2023-03-29T11:53:03.629Z,101476.16
2023-03-29T11:55:36.777Z,101466.19
2023-03-29T11:58:08.162Z,101461.13
2023-03-29T12:00:40.728Z,101461.50
2023-03-29T12:03:42.222Z,101453.38
2023-03-29T12:06:24.768Z,101453.63
2023-03-29T12:09:03.289Z,101440.38
2023-03-29T12:11:39.017Z,101435.94
2023-03-29T12:14:18.151Z,101443.09
2023-03-29T12:16:58.756Z,101427.56
2023-03-29T12:19:43.721Z,101425.72
2023-03-29T12:22:15.127Z,101428.81
2023-03-29T12:24:49.337Z,101421.72
2023-03-29T12:27:30.468Z,101423.00
2023-03-29T12:30:40.245Z,101433.84
2023-03-29T12:33:25.348Z,101419.50
2023-03-29T12:36:01.929Z,101412.09
2023-03-29T12:38:52.609Z,101432.34
2023-03-29T12:41:41.813Z,101418.28
2023-03-29T12:44:59.244Z,101416.50
2023-03-29T12:47:39.875Z,101415.09
2023-03-29T12:50:35.717Z,101404.22
2023-03-29T12:53:24.374Z,101396.69
2023-03-29T12:56:01.952Z,101395.75
2023-03-29T12:58:39.578Z,101409.50
2023-03-29T13:01:33.832Z,101400.00
2023-03-29T13:04:01.901Z,101399.94
2023-03-29T13:06:52.217Z,101408.53
2023-03-29T13:09:30.658Z,101390.66
2023-03-29T13:12:04.932Z,101374.00
2023-03-29T13:14:37.551Z,101370.22
2023-03-29T13:17:18.378Z,101375.94
2023-03-29T13:19:59.112Z,101379.97
2023-03-29T13:22:48.248Z,101372.72
2023-03-29T13:25:51.553Z,101372.69
2023-03-29T13:28:25.329Z,101355.69
2023-03-29T13:31:01.944Z,101362.03
2023-03-29T13:33:54.843Z,101358.03
2023-03-29T13:37:10.145Z,101355.09
2023-03-29T13:39:50.123Z,101361.28
2023-03-29T13:42:20.108Z,101352.31
2023-03-29T13:44:51.851Z,101348.25
2023-03-29T13:47:19.722Z,101346.66
2023-03-29T13:49:56.554Z,101330.66
2023-03-29T13:52:33.495Z,101347.34
2023-03-29T13:55:04.911Z,101335.00
2023-03-29T13:58:04.296Z,101337.72
2023-03-29T14:00:42.225Z,101337.94
2023-03-29T14:03:14.667Z,101338.00
2023-03-29T14:05:48.962Z,101323.34
2023-03-29T14:08:36.777Z,101318.38
2023-03-29T14:11:07.208Z,101326.25
2023-03-29T14:13:39.380Z,101324.41
2023-03-29T14:16:11.929Z,101317.66
2023-03-29T14:18:41.321Z,101312.25
2023-03-29T14:21:12.891Z,101319.59
2023-03-29T14:23:44.712Z,101314.91
2023-03-29T14:26:19.650Z,101311.56
2023-03-29T14:28:56.836Z,101307.63
2023-03-29T14:31:37.235Z,101308.09
2023-03-29T14:34:12.003Z,101309.72
2023-03-29T14:36:40.411Z,101313.88
2023-03-29T14:39:21.353Z,101308.84
2023-03-29T14:41:59.256Z,101308.78
2023-03-29T14:44:34.824Z,101318.34
2023-03-29T14:47:03.557Z,101315.56
2023-03-29T14:49:32.314Z,101315.84
2023-03-29T14:52:00.496Z,101302.47
2023-03-29T14:54:32.971Z,101310.81
2023-03-29T14:57:07.432Z,101320.97
2023-03-29T14:59:37.175Z,101322.81
2023-03-29T15:02:30.098Z,101329.75
2023-03-29T15:05:24.907Z,101320.22
2023-03-29T15:07:56.456Z,101326.41
2023-03-29T15:10:24.657Z,101324.44
2023-03-29T15:12:53.976Z,101327.63
2023-03-29T15:15:25.929Z,101306.56
2023-03-29T15:17:54.105Z,101311.91
2023-03-29T15:20:27.321Z,101309.13
2023-03-29T15:22:58.210Z,101316.94
2023-03-29T15:25:35.382Z,101313.34
2023-03-29T15:28:05.243Z,101299.09
2023-03-29T15:30:39.841Z,101311.63
2023-03-29T15:33:16.605Z,101319.22
2023-03-29T15:35:49.620Z,101328.84
2023-03-29T15:38:18.298Z,101310.44
2023-03-29T15:40:47.947Z,101308.84
2023-03-29T15:43:16.159Z,101317.53
2023-03-29T15:45:45.432Z,101315.56
2023-03-29T15:48:21.877Z,101318.09
2023-03-29T15:50:49.986Z,101308.50
2023-03-29T15:53:20.332Z,101296.69
2023-03-29T15:55:53.181Z,101296.59
2023-03-29T15:58:30.852Z,101303.50
2023-03-29T16:01:11.342Z,101296.34
2023-03-29T16:03:40.523Z,101297.16
2023-03-29T16:06:12.466Z,101297.06
2023-03-29T16:08:41.911Z,101293.41
2023-03-29T16:11:10.092Z,101287.66
2023-03-29T16:13:38.166Z,101277.38
2023-03-29T16:16:06.966Z,101283.22
2023-03-29T16:18:36.143Z,101283.38
2023-03-29T16:21:04.993Z,101285.34
2023-03-29T16:23:33.053Z,101276.22
2023-03-29T16:26:01.167Z,101279.44
2023-03-29T16:28:29.359Z,101279.75
2023-03-29T16:30:57.332Z,101270.25
2023-03-29T16:33:25.330Z,101288.06
2023-03-29T16:35:53.295Z,101291.91
2023-03-29T16:38:24.287Z,101286.53
2023-03-29T16:40:52.813Z,101284.34
2023-03-29T16:43:21.145Z,101278.75
2023-03-29T16:45:49.154Z,101290.38
2023-03-29T16:48:19.123Z,101284.81
2023-03-29T16:50:51.234Z,101285.50
2023-03-29T16:53:21.821Z,101287.41
2023-03-29T16:55:50.045Z,101299.16
2023-03-29T16:58:18.069Z,101307.25
2023-03-29T17:00:48.283Z,101311.56
2023-03-29T17:03:17.079Z,101300.78
2023-03-29T17:05:53.090Z,101306.75
2023-03-29T17:08:22.271Z,101302.81
2023-03-29T17:10:55.683Z,101304.91
2023-03-29T17:13:24.510Z,101305.94
2023-03-29T17:15:54.707Z,101302.88
2023-03-29T17:18:24.488Z,101311.63
2023-03-29T17:20:55.748Z,101305.84
2023-03-29T17:23:24.141Z,101317.25
2023-03-29T17:25:54.984Z,101307.81
2023-03-29T17:28:24.305Z,101308.06
2023-03-29T17:30:52.622Z,101309.09
2023-03-29T17:33:22.856Z,101314.28
2023-03-29T17:35:51.680Z,101320.75
2023-03-29T17:38:19.831Z,101311.88
2023-03-29T17:40:54.998Z,101321.06
2023-03-29T17:43:23.337Z,101322.38
2023-03-29T17:45:53.066Z,101324.31
2023-03-29T17:48:21.834Z,101331.56
2023-03-29T17:50:49.889Z,101336.22
2023-03-29T17:53:18.128Z,101339.16
2023-03-29T17:55:46.190Z,101335.25
2023-03-29T17:58:14.194Z,101346.50
2023-03-29T18:00:42.320Z,101350.19
2023-03-29T18:03:10.738Z,101350.91
2023-03-29T18:05:38.813Z,101363.72
2023-03-29T18:08:08.621Z,101369.91
2023-03-29T18:10:37.069Z,101374.16
2023-03-29T18:13:05.204Z,101388.31
2023-03-29T18:15:33.870Z,101386.13
2023-03-29T18:18:02.042Z,101387.47
2023-03-29T18:20:30.194Z,101392.44
2023-03-29T18:22:58.290Z,101391.88
2023-03-29T18:25:26.330Z,101384.66
2023-03-29T18:27:54.448Z,101396.22
2023-03-29T18:30:22.501Z,101397.75
2023-03-29T18:32:50.580Z,101398.88
2023-03-29T18:35:18.839Z,101404.16
2023-03-29T18:37:47.258Z,101405.69
2023-03-29T18:40:15.945Z,101409.81
2023-03-29T18:42:44.000Z,101409.84
2023-03-29T18:45:12.474Z,101416.06
2023-03-29T18:47:41.242Z,101419.75
2023-03-29T18:50:10.075Z,101419.03
2023-03-29T18:52:38.124Z,101423.72
2023-03-29T18:55:07.327Z,101438.94
2023-03-29T18:57:35.534Z,101435.00
2023-03-29T19:00:10.890Z,101438.38
2023-03-29T19:02:40.468Z,101442.78
2023-03-29T19:05:09.536Z,101445.75
2023-03-29T19:07:38.265Z,101439.69
2023-03-29T19:10:08.014Z,101444.19
2023-03-29T19:12:36.337Z,101432.59
2023-03-29T19:15:04.916Z,101439.25
2023-03-29T19:17:33.207Z,101435.28
2023-03-29T19:20:01.521Z,101440.81
2023-03-29T19:22:29.595Z,101434.84
2023-03-29T19:24:57.677Z,101437.97
2023-03-29T19:27:26.194Z,101440.47
2023-03-29T19:29:54.538Z,101446.09
2023-03-29T19:32:22.547Z,101445.81
2023-03-29T19:34:50.711Z,101449.16
2023-03-29T19:37:19.138Z,101446.16
2023-03-29T19:39:47.190Z,101459.75
2023-03-29T19:42:15.467Z,101454.81
2023-03-29T19:44:43.610Z,101450.41
2023-03-29T19:47:13.557Z,101455.50
2023-03-29T19:49:41.914Z,101464.34
2023-03-29T19:52:10.822Z,101458.81
2023-03-29T19:54:39.023Z,101457.97
2023-03-29T19:57:10.256Z,101453.34
2023-03-29T19:59:41.987Z,101467.56
2023-03-29T20:02:12.973Z,101473.84
2023-03-29T20:04:42.816Z,101471.16
2023-03-29T20:07:13.153Z,101466.78
2023-03-29T20:09:45.209Z,101461.31
2023-03-29T20:12:15.461Z,101463.72
2023-03-29T20:14:47.012Z,101468.09
2023-03-29T20:17:16.541Z,101467.50
2023-03-29T20:19:46.602Z,101470.66
2023-03-29T20:22:15.818Z,101480.97
2023-03-29T20:24:44.029Z,101481.63
2023-03-29T20:27:12.162Z,101490.56
2023-03-29T20:29:40.589Z,101483.94
2023-03-29T20:32:09.568Z,101483.66
2023-03-29T20:34:37.837Z,101479.34
2023-03-29T20:37:06.466Z,101477.38
2023-03-29T20:39:34.878Z,101481.81
2023-03-29T20:42:02.891Z,101491.44
2023-03-29T20:44:32.494Z,101487.69
2023-03-29T20:47:06.919Z,101489.28
2023-03-29T20:49:40.152Z,101482.91
2023-03-29T20:52:10.889Z,101492.97
2023-03-29T20:54:39.030Z,101491.84
2023-03-29T20:57:08.147Z,101501.16
2023-03-29T20:59:36.279Z,101506.16
2023-03-29T21:02:04.832Z,101514.44
2023-03-29T21:04:33.001Z,101513.03
2023-03-29T21:07:03.330Z,101504.31
2023-03-29T21:09:34.369Z,101514.00
2023-03-29T21:12:02.746Z,101517.28
2023-03-29T21:14:33.346Z,101516.16
2023-03-29T21:17:01.683Z,101514.00
2023-03-29T21:19:29.818Z,101513.88
2023-03-29T21:21:58.329Z,101516.56
2023-03-29T21:24:26.390Z,101502.84
2023-03-29T21:26:54.272Z,101504.22
2023-03-29T21:29:22.160Z,101501.28
2023-03-29T21:31:50.238Z,101509.50
2023-03-29T21:34:18.241Z,101503.81
2023-03-29T21:36:46.208Z,101495.94
2023-03-29T21:39:14.376Z,101496.75
2023-03-29T21:41:42.418Z,101504.28
2023-03-29T21:44:10.586Z,101507.56
2023-03-29T21:46:38.683Z,101510.72
2023-03-29T21:49:06.778Z,101509.50
2023-03-29T21:51:34.749Z,101514.28
2023-03-29T21:54:02.902Z,101509.31
2023-03-29T21:56:30.958Z,101504.91
2023-03-29T21:58:58.959Z,101512.81
2023-03-29T22:01:27.440Z,101506.38
2023-03-29T22:03:56.421Z,101500.75
2023-03-29T22:06:24.811Z,101501.84
2023-03-29T22:08:53.386Z,101496.75
2023-03-29T22:11:21.583Z,101500.06
2023-03-29T22:13:52.653Z,101500.38
2023-03-29T22:16:26.060Z,101498.00
2023-03-29T22:18:54.482Z,101498.78
2023-03-29T22:21:28.707Z,101495.78
2023-03-29T22:23:58.112Z,101501.53
2023-03-29T22:26:29.532Z,101499.38
2023-03-29T22:28:59.104Z,101494.44
2023-03-29T22:31:28.286Z,101481.47
2023-03-29T22:33:57.038Z,101493.69
2023-03-29T22:36:27.657Z,101498.22
2023-03-29T22:38:56.274Z,101488.59
2023-03-29T22:41:26.354Z,101490.56
2023-03-29T22:43:56.965Z,101496.03
2023-03-29T22:46:25.551Z,101493.63
2023-03-29T22:48:53.588Z,101495.56
2023-03-29T22:51:21.904Z,101484.84
2023-03-29T22:53:49.936Z,101486.31
2023-03-29T22:56:18.113Z,101483.19
2023-03-29T22:58:46.627Z,101478.66
2023-03-29T23:01:14.755Z,101494.63
2023-03-29T23:03:42.711Z,101499.03
2023-03-29T23:06:10.749Z,101504.03
2023-03-29T23:08:38.731Z,101493.59
2023-03-29T23:11:07.624Z,101486.72
2023-03-29T23:13:35.672Z,101498.38
2023-03-29T23:16:05.156Z,101496.38
2023-03-29T23:18:37.949Z,101506.59
2023-03-29T23:21:06.787Z,101509.31
2023-03-29T23:23:36.320Z,101510.41
2023-03-29T23:26:08.598Z,101514.25
2023-03-29T23:28:36.680Z,101520.00
2023-03-29T23:31:10.746Z,101522.31
2023-03-29T23:33:42.948Z,101522.19
2023-03-29T23:36:13.652Z,101520.25
2023-03-29T23:38:42.527Z,101523.28
2023-03-29T23:41:13.007Z,101521.94
2023-03-29T23:43:43.194Z,101523.88
2023-03-29T23:46:15.494Z,101524.97
2023-03-29T23:48:49.235Z,101525.81
2023-03-29T23:51:19.043Z,101532.16
2023-03-29T23:53:48.017Z,101523.16
2023-03-29T23:56:16.400Z,101518.28
2023-03-29T23:58:44.768Z,101509.31
